Governor Kay Ivey has amended the current Safer at Home order to include mask requirements in schools and colleges effective July 31, 2020 at 5 PM until August 31, 2020 at 5 PM. Read the order here.



Hotel/Lodging Scores

The Lodging Program enforces regulations governing establishments where sleeping arrangements made available for people to stay temporarily. These facilities are inspected for cleanliness and condition of the building, furnishings, fixtures, equipment and utensils – they receive a score based out of 100 possible points. Permits are for one year and automatically expire on January 1st each year.

For information about the Lodging Program and the type of facilites inspected, visit here.
ALL A B C D E F G H I J K L M N O P Q R S T U V W X Y Z
Estab#ScoreNameDate# of Units
57991 HAMPTON INN 310 Rex Lake RD LEEDS 35094 Number of Units: 105 Date: 02/18/20 02/18/20105
144595 HILTON GARDEN INN BIRMINGHAM SE / LIBERTY PARK 2090 URBAN CENTER PKWY VESTAVIA 35242 Number of Units: 130 Date: 02/11/20 02/11/20130
59295 HOLIDAY INN 2901 John Hawkins Parkway HOOVER 35244 Number of Units: 113 Date: 02/04/20 02/04/20113
61291 HAMPTON INN & SUITES 3930 GRANTS MILL RD IRONDALE 35210 Number of Units: 99 Date: 01/23/20 01/23/2099
22194 HAMILTON INN 4910 CIVIC LN BESSEMER 35022 Number of Units: 94 Date: 01/16/20 01/16/2094
120194 Home 2 Suites 250 18th ST S BIRMINGHAM 35233 Number of Units: 210 Date: 12/11/19 12/11/19210
55893 HAMPTON INN & SUITES 4520 Galleria BLVD HOOVER 35244 Number of Units: 102 Date: 12/11/19 12/11/19102
120094 Hilton Garden Inn 250 18th ST S BIRMINGHAM 35233 Number of Units: 210 Date: 12/11/19 12/11/19210
24698 HOLIDAY INN EXPRESS TRUSSVILLE 5911 VALLEY RD TRUSSVILLE 35173 Number of Units: 64 Date: 12/10/19 12/10/1964
1209100 HOLIDAY INN EXPRESS - FULTONDALE 1701 MAIN ST FULTONDALE 35068 Number of Units: 100 Date: 12/06/19 12/06/19100
127094 HOLIDAY INN EXPRESS & SUITES 811 OLD GRANTS MILL RD IRONDALE 35210 Number of Units: 99 Date: 11/07/19 11/07/1999
22797 HOLIDAY INN EXPRESS 5001 ACADEMY LN BESSEMER 35022 Number of Units: 63 Date: 10/31/19 10/31/1963
250100 HAMPTON INN 1940 EDWARDS LAKE RD BIRMINGHAM 35235 Number of Units: 78 Date: 10/15/19 10/15/1978
25192 HOMEWOOD LODGE 103 GREENSPRINGS HWY BIRMINGHAM 35209 Number of Units: 45 Date: 10/14/19 10/14/1945
112096 HOMEWOOD SUITES - UAB 1016 20TH ST S BIRMINGHAM 35205 Number of Units: 105 Date: 08/27/19 08/27/19105
115395 HOLIDAY INN - HOMEWOOD 492 WILDWOOD CIR N HOMEWOOD 35209 Number of Units: 108 Date: 08/14/19 08/14/19108
23688 HIWAY HOST MOTEL 4301 BESSEMER SUPER HWY BESSEMER 35020 Number of Units: 25 Date: 08/02/19 08/02/1925
19993 Hyatt Regency Birmingham-The Wynfrey Hotel 1000 RIVERCHASE GALLERIA BIRMINGHAM 35244 Number of Units: 329 Date: 05/15/19 05/15/19329
57996 HAMPTON INN 310 Rex Lake RD LEEDS 35094 Number of Units: 105 Date: 02/27/19 02/27/19105
61296 HAMPTON INN & SUITES 3930 GRANTS MILL RD IRONDALE 35210 Number of Units: 99 Date: 01/03/19 01/03/1999
24696 HOLIDAY INN EXPRESS TRUSSVILLE 5911 VALLEY RD TRUSSVILLE 35173 Number of Units: 64 Date: 12/18/18 12/18/1864
127093 HOLIDAY INN EXPRESS & SUITES 811 OLD GRANTS MILL RD IRONDALE 35210 Number of Units: 99 Date: 11/29/18 11/29/1899
22796 HOLIDAY INN EXPRESS 5001 ACADEMY LN BESSEMER 35022 Number of Units: 63 Date: 08/27/18 08/27/1863
25995 HAMPTON INN LAKESHORE 30 STATE FARM PKWY HOMEWOOD 35209 Number of Units: 97 Date: 05/14/18 05/14/1897
59296 HOLIDAY INN 2901 John Hawkins Parkway HOOVER 35244 Number of Units: 113 Date: 05/01/18 05/01/18113
115393 HOLIDAY INN - HOMEWOOD 492 WILDWOOD CIR N HOMEWOOD 35209 Number of Units: 108 Date: 04/26/18 04/26/18108
25589 HOLIDAY INN-BIRMINGHAM AIRPORT 5000 10TH AVE N BIRMINGHAM 35212 Number of Units: 226 Date: 04/25/18 04/25/18226
23692 HIWAY HOST MOTEL 4301 BESSEMER SUPER HWY BESSEMER 35020 Number of Units: 25 Date: 03/28/18 03/28/1825
57996 HAMPTON INN 310 Rex Lake RD LEEDS 35094 Number of Units: 105 Date: 03/23/18 03/23/18105
22191 HAMILTON INN 4910 CIVIC LN BESSEMER 35022 Number of Units: 94 Date: 03/19/18 03/19/1894
55894 HAMPTON INN & SUITES 4520 Galleria BLVD HOOVER 35244 Number of Units: 102 Date: 01/03/18 01/03/18102
25193 HOMEWOOD LODGE 103 GREENSPRINGS HWY BIRMINGHAM 35209 Number of Units: 45 Date: 12/29/17 12/29/1745
25098 HAMPTON INN 1940 EDWARDS LAKE RD BIRMINGHAM 35235 Number of Units: 78 Date: 12/28/17 12/28/1778
1209100 HOLIDAY INN EXPRESS - FULTONDALE 1701 MAIN ST FULTONDALE 35068 Number of Units: 100 Date: 11/14/17 11/14/17100
24698 HOLIDAY INN EXPRESS TRUSSVILLE 5911 VALLEY RD TRUSSVILLE 35173 Number of Units: 64 Date: 10/13/17 10/13/1764
120198 Home 2 Suites 250 18th ST S BIRMINGHAM 35233 Number of Units: 210 Date: 09/28/17 09/28/17210
120097 Hilton Garden Inn 250 18th ST S BIRMINGHAM 35233 Number of Units: 210 Date: 09/28/17 09/28/17210
25997 HAMPTON INN LAKESHORE 30 STATE FARM PKWY HOMEWOOD 35209 Number of Units: 97 Date: 04/04/17 04/04/1797
57998 HAMPTON INN 310 Rex Lake RD LEEDS 35094 Number of Units: 105 Date: 03/17/17 03/17/17105
112092 HOMEWOOD SUITES - UAB 1016 20TH ST S BIRMINGHAM 35205 Number of Units: 105 Date: 03/15/17 03/15/17105
19992 Hyatt Regency Birmingham-The Wynfrey Hotel 1000 RIVERCHASE GALLERIA BIRMINGHAM 35244 Number of Units: 329 Date: 03/10/17 03/10/17329
127098 HOLIDAY INN EXPRESS & SUITES 811 OLD GRANTS MILL RD IRONDALE 35210 Number of Units: 99 Date: 01/30/17 01/30/1799
250100 HAMPTON INN 1940 EDWARDS LAKE RD BIRMINGHAM 35235 Number of Units: 78 Date: 12/27/16 12/27/1678
55896 HAMPTON INN & SUITES 4520 Galleria BLVD HOOVER 35244 Number of Units: 102 Date: 12/21/16 12/21/16102
25592 HOLIDAY INN-BIRMINGHAM AIRPORT 5000 10TH AVE N BIRMINGHAM 35212 Number of Units: 226 Date: 12/09/16 12/09/16226
23795 HAMPTON INN-MOUNTAIN BROOK 2731 US HIGHWAY 280 BIRMINGHAM 35223 Number of Units: 130 Date: 12/02/16 12/02/16130
61298 HAMPTON INN & SUITES 3930 GRANTS MILL RD IRONDALE 35210 Number of Units: 99 Date: 12/01/16 12/01/1699
59296 HOLIDAY INN 2901 John Hawkins Parkway HOOVER 35244 Number of Units: 113 Date: 11/08/16 11/08/16113
22795 HOLIDAY INN EXPRESS 5001 ACADEMY LN BESSEMER 35022 Number of Units: 63 Date: 08/08/16 08/08/1663
22192 HAMILTON INN 4910 CIVIC LN BESSEMER 35022 Number of Units: 94 Date: 07/28/16 07/28/1694
123
Central Health Center
(Guy M. Tate)

1400 Sixth Avenue South
Birmingham, AL 35233
Clinics
(205) 588-5234

Programs
(205) 933-9110
Eastern Health Center
601 West Blvd Roebuck
Birmingham, AL 35206
Programs and Clinics
(205) 588-5234
Western Health Center
631 Bessemer Super Hwy
Midfield, AL 35228
Programs and Clinics
(205) 588-5234
Hours of Operation:
All Centers are open 7:45am to 4:30pm. Phone lines for clinic appointments open at 7:00am Monday through Friday.
 

If this is a Medical Emergency call 911.
If you are a patient and need to reach your health care team after business hours for non-life threatening conditions, call 205-588-5234. For Medical Emergencies dial 911.

Nondiscrimination Compliance Office
(205) 930-1577
nondiscrimination@jcdh.org
Notice of Nondiscrimination [ English ]  [ Español ]



Copyright © 2020 Jefferson County Department of Health